Time;durP1;ratioP1;P1;durP2;ratioP2;P2;SDS_P1;SDS_P2;PMS_P1;PMS_P2;Temp;Humidity;BMP_temperature;BMP_pressure;BME280_temperature;BME280_humidity;BME280_pressure;Samples;Min_cycle;Max_cycle;Signal;HPM_P1;HPM_P2
2020/12/06 00:01:35;;;;;;;10.35;7.05;;;;;;;0.27;62.48;102254.88;1695904;83;21131;-35
2020/12/06 00:04:07;;;;;;;8.38;5.75;;;;;;;0.25;62.49;102255.29;1692322;83;21214;-41
2020/12/06 00:06:34;;;;;;;11.80;8.03;;;;;;;0.24;62.30;102260.11;1692094;83;21546;-39
2020/12/06 00:09:05;;;;;;;10.78;6.17;;;;;;;0.23;62.19;102259.66;1690909;83;21195;-40
2020/12/06 00:11:33;;;;;;;9.40;6.60;;;;;;;0.22;62.12;102260.51;1697084;83;21294;-35
2020/12/06 00:14:01;;;;;;;10.93;7.17;;;;;;;0.18;61.91;102254.36;1688980;83;21183;-38
2020/12/06 00:16:29;;;;;;;11.85;7.55;;;;;;;0.17;61.83;102256.51;1696389;83;21206;-37
2020/12/06 00:18:56;;;;;;;9.25;6.85;;;;;;;0.13;61.79;102263.91;1689000;83;21661;-37
2020/12/06 00:21:25;;;;;;;12.82;7.67;;;;;;;0.08;61.66;102266.03;1695794;83;21320;-41
2020/12/06 00:23:53;;;;;;;9.90;7.20;;;;;;;0.05;61.56;102267.28;1696666;83;21163;-38
2020/12/06 00:26:25;;;;;;;13.78;7.53;;;;;;;0.03;61.53;102271.66;1693231;83;21195;-39
2020/12/06 00:28:53;;;;;;;9.60;6.58;;;;;;;-0.01;61.35;102266.78;1695601;84;21157;-37
2020/12/06 00:31:21;;;;;;;10.38;6.42;;;;;;;-0.05;61.47;102263.25;1712786;82;21134;-37
2020/12/06 00:33:48;;;;;;;10.65;6.53;;;;;;;-0.09;61.49;102261.43;1694564;83;21645;-41
2020/12/06 00:36:16;;;;;;;10.55;6.12;;;;;;;-0.11;61.35;102262.27;1680572;83;21175;-40
2020/12/06 00:38:44;;;;;;;11.03;6.60;;;;;;;-0.13;61.23;102259.61;1734700;81;21150;-38
2020/12/06 00:41:13;;;;;;;9.58;5.85;;;;;;;-0.14;61.26;102266.17;1732451;81;21146;-39
2020/12/06 00:43:40;;;;;;;12.00;6.85;;;;;;;-0.17;61.00;102270.06;1731185;81;21648;-37
2020/12/06 00:46:08;;;;;;;12.50;6.95;;;;;;;-0.20;60.94;102273.94;1736906;81;21658;-38
2020/12/06 00:48:35;;;;;;;10.88;6.55;;;;;;;-0.23;60.97;102271.74;1733445;81;21449;-39
2020/12/06 00:51:03;;;;;;;8.10;5.50;;;;;;;-0.25;60.99;102270.84;1713093;82;21565;-37
2020/12/06 00:53:32;;;;;;;9.95;5.62;;;;;;;-0.27;60.94;102273.86;1715823;82;21450;-38
2020/12/06 00:56:00;;;;;;;12.05;7.65;;;;;;;-0.31;60.94;102268.55;1730447;81;21149;-39
2020/12/06 00:58:28;;;;;;;10.00;6.60;;;;;;;-0.35;60.84;102275.49;1734347;81;21174;-42
2020/12/06 01:00:55;;;;;;;9.00;5.72;;;;;;;-0.38;60.86;102277.17;1729874;81;21167;-38
2020/12/06 01:03:23;;;;;;;10.23;7.12;;;;;;;-0.44;60.92;102271.41;1736539;81;21158;-38
2020/12/06 01:05:50;;;;;;;11.22;5.97;;;;;;;-0.49;61.04;102268.72;1734190;81;21138;-39
2020/12/06 01:08:18;;;;;;;11.22;6.75;;;;;;;-0.50;61.01;102263.03;1734520;81;21170;-44
2020/12/06 01:10:47;;;;;;;9.58;6.70;;;;;;;-0.52;61.07;102259.94;1722890;81;21509;-37
2020/12/06 01:13:14;;;;;;;10.72;6.00;;;;;;;-0.55;60.95;102265.14;1732867;81;21559;-39
2020/12/06 01:15:42;;;;;;;11.22;7.42;;;;;;;-0.59;61.07;102264.63;1736104;81;21146;-38
2020/12/06 01:18:11;;;;;;;12.03;6.65;;;;;;;-0.60;60.96;102262.88;1731782;81;21165;-41
2020/12/06 01:20:38;;;;;;;11.05;6.42;;;;;;;-0.64;60.82;102269.79;1734484;81;21273;-41
2020/12/06 01:23:06;;;;;;;10.55;5.83;;;;;;;-0.67;60.60;102261.89;1736480;81;21142;-42
2020/12/06 01:25:34;;;;;;;9.50;5.85;;;;;;;-0.72;60.62;102259.19;1733264;81;21547;-41
2020/12/06 01:28:02;;;;;;;8.95;5.62;;;;;;;-0.75;60.67;102268.31;1734085;81;21158;-45
2020/12/06 01:30:29;;;;;;;8.63;5.37;;;;;;;-0.79;60.64;102276.09;1733262;81;21599;-39
2020/12/06 01:32:57;;;;;;;12.30;6.15;;;;;;;-0.82;60.61;102272.99;1734775;81;21586;-38
2020/12/06 01:35:25;;;;;;;8.07;4.90;;;;;;;-0.85;60.59;102269.02;1725529;81;21178;-40
2020/12/06 01:37:52;;;;;;;9.33;6.10;;;;;;;-0.86;60.67;102277.72;1699178;83;21161;-36
2020/12/06 01:40:22;;;;;;;9.38;5.40;;;;;;;-0.89;60.75;102278.98;1701399;82;21760;-37
2020/12/06 01:42:49;;;;;;;9.47;5.57;;;;;;;-0.92;60.51;102285.48;1698603;83;21291;-38
2020/12/06 01:45:17;;;;;;;9.40;5.87;;;;;;;-0.94;60.44;102280.64;1703797;82;21165;-38
2020/12/06 01:47:44;;;;;;;11.25;6.97;;;;;;;-0.95;60.43;102277.58;1699009;83;21708;-40
2020/12/06 01:52:48;;;;;;;11.05;6.20;;;;;;;-1.00;60.38;102277.92;1796505;77;22835;-41
2020/12/06 01:55:15;;;;;;;9.45;6.20;;;;;;;-1.07;60.45;102273.00;1775037;79;21157;-37
2020/12/06 01:57:43;;;;;;;9.95;5.92;;;;;;;-1.08;60.43;102279.10;1720682;81;21587;-40
2020/12/06 02:00:10;;;;;;;10.43;6.05;;;;;;;-1.11;60.45;102277.72;1720082;81;21696;-39
2020/12/06 02:02:38;;;;;;;9.33;5.12;;;;;;;-1.15;60.30;102274.17;1724219;81;21157;-35
2020/12/06 02:05:05;;;;;;;9.33;5.90;;;;;;;-1.18;60.43;102272.81;1717651;81;21130;-36
2020/12/06 02:07:33;;;;;;;11.78;6.45;;;;;;;-1.19;60.46;102280.19;1722309;81;21139;-34
2020/12/06 02:10:00;;;;;;;8.68;5.67;;;;;;;-1.22;60.53;102273.59;1722002;81;21131;-34
2020/12/06 02:12:28;;;;;;;8.77;5.13;;;;;;;-1.22;60.71;102278.84;1721830;81;21146;-34
2020/12/06 02:14:55;;;;;;;9.43;5.55;;;;;;;-1.24;60.94;102277.05;1726726;81;21675;-36
2020/12/06 02:17:26;;;;;;;9.30;5.37;;;;;;;-1.24;60.82;102275.30;1721506;81;21609;-38
2020/12/06 02:19:54;;;;;;;8.83;5.12;;;;;;;-1.23;60.83;102284.06;1723460;81;21149;-38
2020/12/06 02:22:22;;;;;;;9.68;5.50;;;;;;;-1.25;60.97;102293.19;1721255;81;21095;-38
2020/12/06 02:24:49;;;;;;;9.47;5.93;;;;;;;-1.24;60.81;102296.67;1723013;81;21180;-40
2020/12/06 02:27:17;;;;;;;8.47;4.70;;;;;;;-1.28;60.89;102293.13;1722319;81;21145;-36
2020/12/06 02:29:44;;;;;;;9.73;5.72;;;;;;;-1.32;60.84;102290.86;1723470;81;21541;-39
2020/12/06 02:32:12;;;;;;;10.40;5.67;;;;;;;-1.35;60.76;102296.05;1726598;81;21555;-38
2020/12/06 02:34:39;;;;;;;9.50;5.43;;;;;;;-1.36;60.72;102299.53;1722243;81;21186;-37
2020/12/06 02:37:07;;;;;;;11.30;6.37;;;;;;;-1.38;60.71;102296.43;1728657;81;21111;-38
2020/12/06 02:39:34;;;;;;;9.30;5.37;;;;;;;-1.38;60.74;102305.16;1724803;81;21127;-38
2020/12/06 02:42:03;;;;;;;8.47;5.20;;;;;;;-1.39;60.66;102302.06;1723199;81;21467;-37
2020/12/06 02:44:30;;;;;;;9.93;5.40;;;;;;;-1.43;60.61;102300.27;1704962;82;21143;-37
2020/12/06 02:46:59;;;;;;;12.63;5.28;;;;;;;-1.45;60.55;102299.34;1719312;82;21194;-36
2020/12/06 02:49:27;;;;;;;6.65;4.72;;;;;;;-1.45;60.48;102301.08;1717611;82;21162;-39
2020/12/06 02:51:55;;;;;;;8.10;5.00;;;;;;;-1.49;60.56;102301.43;1706391;82;21173;-39
2020/12/06 02:54:22;;;;;;;10.03;6.53;;;;;;;-1.52;60.33;102297.02;1703251;83;21597;-36
2020/12/06 02:56:50;;;;;;;8.40;4.70;;;;;;;-1.53;60.17;102300.50;1708805;83;21158;-39
2020/12/06 02:59:18;;;;;;;14.67;5.87;;;;;;;-1.58;60.31;102298.22;1747093;81;21182;-38
2020/12/06 03:01:45;;;;;;;7.28;4.50;;;;;;;-1.61;60.27;102298.16;1747000;81;21615;-33
2020/12/06 03:04:13;;;;;;;6.08;4.55;;;;;;;-1.66;60.29;102299.80;1749490;80;21135;-39
2020/12/06 03:06:40;;;;;;;11.23;5.60;;;;;;;-1.69;60.26;102304.95;1744224;81;21649;-38
2020/12/06 03:09:08;;;;;;;9.50;5.50;;;;;;;-1.71;60.33;102305.38;1688377;84;21158;-38
2020/12/06 03:11:36;;;;;;;9.30;5.20;;;;;;;-1.73;60.37;102308.37;1743190;80;21110;-39
2020/12/06 03:14:03;;;;;;;8.65;5.65;;;;;;;-1.72;60.30;102304.02;1743898;81;21124;-40
2020/12/06 03:16:31;;;;;;;7.58;4.55;;;;;;;-1.75;60.28;102305.71;1744917;80;21131;-36
2020/12/06 03:18:58;;;;;;;7.37;3.97;;;;;;;-1.76;60.14;102313.11;1747369;81;21158;-37
2020/12/06 03:21:26;;;;;;;8.87;4.97;;;;;;;-1.78;60.15;102312.20;1743583;81;21570;-36
2020/12/06 03:23:53;;;;;;;7.50;3.80;;;;;;;-1.79;60.26;102313.06;1744963;81;21106;-36
2020/12/06 03:26:21;;;;;;;7.00;4.47;;;;;;;-1.82;60.26;102316.89;1742206;80;21114;-38
2020/12/06 03:28:48;;;;;;;8.07;5.27;;;;;;;-1.86;60.29;102312.47;1743966;81;21126;-40
2020/12/06 03:31:16;;;;;;;8.73;4.97;;;;;;;-1.88;60.26;102311.55;1744844;80;21154;-40
2020/12/06 03:33:43;;;;;;;7.45;4.35;;;;;;;-1.90;60.38;102318.47;1741702;81;21118;-40
2020/12/06 03:36:12;;;;;;;10.33;4.83;;;;;;;-1.90;60.35;102318.47;1744138;80;21174;-41
2020/12/06 03:38:39;;;;;;;8.53;5.43;;;;;;;-1.90;60.41;102326.74;1743048;81;21192;-43
2020/12/06 03:41:07;;;;;;;6.73;4.80;;;;;;;-1.89;60.38;102328.09;1743512;81;21136;-43
2020/12/06 03:43:34;;;;;;;10.30;5.30;;;;;;;-1.91;60.35;102331.09;1749795;81;21174;-42
2020/12/06 03:46:02;;;;;;;7.35;4.08;;;;;;;-1.91;60.24;102324.99;1741988;81;21146;-41
2020/12/06 03:48:29;;;;;;;8.80;5.13;;;;;;;-1.92;60.20;102332.36;1744855;81;22126;-38
2020/12/06 03:50:59;;;;;;;9.53;5.77;;;;;;;-1.93;60.04;102334.53;1690454;83;21142;-40
2020/12/06 03:53:26;;;;;;;9.03;5.07;;;;;;;-1.95;60.00;102333.17;1688253;84;21183;-39
2020/12/06 03:55:54;;;;;;;7.65;4.15;;;;;;;-1.97;59.99;102333.56;1742123;80;21555;-39
2020/12/06 03:58:21;;;;;;;7.40;4.63;;;;;;;-1.99;60.05;102327.41;1744372;80;21628;-41
2020/12/06 04:00:49;;;;;;;6.60;4.83;;;;;;;-2.00;60.07;102330.88;1745926;80;21130;-40
2020/12/06 04:03:16;;;;;;;8.87;5.37;;;;;;;-2.03;60.18;102330.82;1744468;80;22043;-35
2020/12/06 04:05:44;;;;;;;8.10;5.63;;;;;;;-2.04;60.18;102323.80;1747365;81;21186;-37
2020/12/06 04:08:11;;;;;;;8.77;4.73;;;;;;;-2.05;60.02;102328.16;1746766;81;21143;-36
2020/12/06 04:10:40;;;;;;;9.37;4.80;;;;;;;-2.08;60.15;102333.33;1743729;80;21139;-37
2020/12/06 04:13:08;;;;;;;11.10;4.40;;;;;;;-2.10;60.14;102335.02;1743392;81;21158;-37
2020/12/06 04:15:35;;;;;;;6.62;4.25;;;;;;;-2.12;60.27;102336.70;1743619;81;21130;-42
2020/12/06 04:18:03;;;;;;;6.10;4.37;;;;;;;-2.13;60.21;102340.18;1742362;80;21139;-41
2020/12/06 04:20:30;;;;;;;7.27;4.27;;;;;;;-2.12;60.19;102345.86;1744462;80;21187;-47
2020/12/06 04:22:58;;;;;;;8.30;4.70;;;;;;;-2.11;60.04;102350.25;1743429;81;21150;-39
2020/12/06 04:25:27;;;;;;;7.37;4.67;;;;;;;-2.11;59.92;102347.64;1742260;81;21106;-40
2020/12/06 04:27:54;;;;;;;7.90;4.43;;;;;;;-2.10;60.00;102349.83;1744553;80;21126;-37
2020/12/06 04:30:22;;;;;;;7.77;4.77;;;;;;;-2.13;59.86;102344.11;1741083;81;21138;-39
2020/12/06 04:32:49;;;;;;;6.90;4.73;;;;;;;-2.18;59.82;102352.27;1747562;80;21182;-35
2020/12/06 04:35:17;;;;;;;6.10;4.00;;;;;;;-2.21;59.82;102354.81;1747480;80;21150;-37
2020/12/06 04:37:44;;;;;;;11.03;5.03;;;;;;;-2.22;59.83;102360.87;1744455;80;21116;-37
2020/12/06 04:40:12;;;;;;;7.27;4.80;;;;;;;-2.23;59.86;102354.77;1688135;83;21594;-40
2020/12/06 04:42:39;;;;;;;6.80;4.40;;;;;;;-2.21;59.89;102357.43;1666883;84;21824;-38
2020/12/06 04:45:07;;;;;;;5.93;4.30;;;;;;;-2.21;59.85;102358.73;1748219;80;21118;-36
2020/12/06 04:47:58;;;;;;;8.10;4.37;;;;;;;-2.21;59.89;102358.30;1748851;80;21175;-34
2020/12/06 04:50:38;;;;;;;7.47;3.97;;;;;;;-2.21;59.93;102359.61;1688760;82;21157;-37
2020/12/06 04:53:05;;;;;;;8.97;4.07;;;;;;;-2.22;59.95;102366.09;1688874;83;21642;-39
2020/12/06 04:55:35;;;;;;;7.30;4.80;;;;;;;-2.22;59.94;102359.56;1691093;84;21658;-36
2020/12/06 04:58:04;;;;;;;7.67;4.53;;;;;;;-2.23;59.93;102356.50;1687800;83;21147;-45
2020/12/06 05:00:36;;;;;;;7.87;4.07;;;;;;;-2.22;59.93;102353.03;1747203;81;21151;-34
2020/12/06 05:03:07;;;;;;;8.00;5.20;;;;;;;-2.22;59.86;102366.09;1747063;81;21130;-38
2020/12/06 05:05:38;;;;;;;10.17;5.13;;;;;;;-2.25;59.91;102361.68;1746403;80;21138;-38
2020/12/06 05:08:11;;;;;;;7.63;4.93;;;;;;;-2.25;59.82;102358.19;1741645;81;21130;-35
2020/12/06 05:10:46;;;;;;;10.07;5.37;;;;;;;-2.27;59.78;102355.56;1747248;80;21142;-35
2020/12/06 05:13:15;;;;;;;10.03;4.60;;;;;;;-2.27;59.73;102357.27;1749839;80;21122;-39
2020/12/06 05:15:46;;;;;;;7.43;5.27;;;;;;;-2.28;59.68;102354.20;1745557;80;21127;-37
2020/12/06 05:18:14;;;;;;;7.87;4.57;;;;;;;-2.30;59.54;102359.37;1742187;81;21107;-39
2020/12/06 05:20:41;;;;;;;7.93;5.10;;;;;;;-2.32;59.45;102362.80;1736964;81;21099;-40
2020/12/06 05:23:09;;;;;;;8.80;4.73;;;;;;;-2.34;59.42;102361.48;1748267;80;21130;-39
2020/12/06 05:25:36;;;;;;;9.53;4.93;;;;;;;-2.35;59.43;102363.61;1746615;81;21134;-37
2020/12/06 05:28:06;;;;;;;8.77;5.37;;;;;;;-2.34;59.24;102363.19;1740580;81;21104;-38
2020/12/06 05:30:33;;;;;;;8.73;4.33;;;;;;;-2.40;59.17;102364.80;1737045;81;21635;-40
2020/12/06 05:33:01;;;;;;;7.80;5.10;;;;;;;-2.41;59.32;102367.40;1742950;80;21157;-38
2020/12/06 05:35:28;;;;;;;7.13;5.13;;;;;;;-2.42;59.26;102369.14;1744021;81;21122;-35
2020/12/06 05:37:56;;;;;;;6.87;4.40;;;;;;;-2.44;59.33;102368.64;1746617;80;21151;-38
2020/12/06 05:40:24;;;;;;;9.97;4.43;;;;;;;-2.45;59.13;102369.03;1748469;81;21127;-36
2020/12/06 05:42:51;;;;;;;6.37;4.23;;;;;;;-2.47;59.01;102370.75;1747019;81;21143;-42
2020/12/06 05:45:19;;;;;;;8.67;4.30;;;;;;;-2.46;59.02;102371.63;1727104;81;21570;-41
2020/12/06 05:47:47;;;;;;;6.13;4.00;;;;;;;-2.47;59.10;102381.20;1693598;84;21544;-39
2020/12/06 05:50:16;;;;;;;7.40;4.40;;;;;;;-2.48;59.17;102377.23;1698777;83;21151;-34
2020/12/06 05:52:44;;;;;;;7.33;4.33;;;;;;;-2.48;59.19;102380.72;1691808;83;21155;-39
2020/12/06 05:55:11;;;;;;;9.77;4.67;;;;;;;-2.46;59.34;102384.69;1753023;80;21167;-36
2020/12/06 05:57:40;;;;;;;9.13;5.20;;;;;;;-2.44;59.18;102378.66;1753417;81;21157;-41
2020/12/06 06:00:08;;;;;;;9.23;4.03;;;;;;;-2.43;58.95;102381.72;1747515;81;21598;-40
2020/12/06 06:02:36;;;;;;;8.97;4.57;;;;;;;-2.44;59.02;102390.42;1743578;81;21172;-38
2020/12/06 06:05:04;;;;;;;11.10;4.77;;;;;;;-2.47;58.95;102392.96;1745903;81;21617;-41
2020/12/06 06:07:31;;;;;;;6.90;3.77;;;;;;;-2.49;58.85;102395.95;1729272;81;21617;-36
2020/12/06 06:10:05;;;;;;;6.53;3.70;;;;;;;-2.50;58.78;102395.47;1716230;81;21590;-38
2020/12/06 06:12:33;;;;;;;7.97;4.30;;;;;;;-2.49;58.73;102396.38;1743686;81;21660;-37
2020/12/06 06:15:03;;;;;;;7.57;4.07;;;;;;;-2.50;58.60;102395.90;1747247;80;21131;-38
2020/12/06 06:17:31;;;;;;;7.13;4.47;;;;;;;-2.51;58.56;102398.95;1743731;81;21559;-36
2020/12/06 06:20:01;;;;;;;9.53;5.10;;;;;;;-2.54;58.56;102397.56;1743781;81;21132;-36
2020/12/06 06:22:42;;;;;;;5.77;3.87;;;;;;;-2.56;58.68;102408.39;1742297;81;21625;-36
2020/12/06 06:25:11;;;;;;;7.33;3.73;;;;;;;-2.55;58.67;102404.05;1744241;80;21166;-37
2020/12/06 06:27:40;;;;;;;6.57;4.27;;;;;;;-2.52;58.78;102402.81;1720730;81;21585;-39
2020/12/06 06:30:09;;;;;;;8.53;4.83;;;;;;;-2.51;58.81;102396.76;1746028;81;21170;-37
2020/12/06 06:32:38;;;;;;;8.80;4.93;;;;;;;-2.49;58.64;102406.41;1743135;81;21159;-37
2020/12/06 06:35:08;;;;;;;6.93;3.90;;;;;;;-2.48;58.65;102405.55;1694614;83;21154;-36
2020/12/06 06:37:37;;;;;;;5.45;3.62;;;;;;;-2.46;58.58;102401.25;1744196;80;21123;-38
2020/12/06 06:40:07;;;;;;;8.83;5.00;;;;;;;-2.46;58.38;102405.17;1692003;83;21681;-38
2020/12/06 06:42:36;;;;;;;12.53;4.08;;;;;;;-2.46;58.45;102408.21;1748379;81;21142;-37
2020/12/06 06:45:11;;;;;;;7.07;4.03;;;;;;;-2.45;58.38;102403.44;1742154;80;21135;-37
2020/12/06 06:47:40;;;;;;;7.43;4.13;;;;;;;-2.42;58.45;102406.12;1744739;80;21153;-39
2020/12/06 06:50:10;;;;;;;10.20;4.47;;;;;;;-2.40;58.36;102406.62;1754430;81;21127;-36
2020/12/06 06:52:42;;;;;;;8.37;4.47;;;;;;;-2.36;58.36;102404.98;1683432;84;21161;-35
2020/12/06 06:55:10;;;;;;;6.97;4.33;;;;;;;-2.36;58.35;102405.41;1749827;81;21150;-36
2020/12/06 06:57:41;;;;;;;6.20;4.27;;;;;;;-2.34;58.39;102402.39;1746383;81;21486;-43
2020/12/06 07:00:08;;;;;;;7.05;4.33;;;;;;;-2.33;58.78;102410.28;1747167;81;21130;-40
2020/12/06 07:02:43;;;;;;;8.23;4.63;;;;;;;-2.31;58.51;102399.45;1745514;81;21206;-40
2020/12/06 07:05:17;;;;;;;8.80;4.43;;;;;;;-2.28;59.27;102402.13;1743761;81;21150;-41
2020/12/06 07:07:49;;;;;;;5.40;3.77;;;;;;;-2.22;58.82;102400.08;1744893;81;21142;-38
2020/12/06 07:10:21;;;;;;;8.10;4.90;;;;;;;-2.16;58.66;102395.02;1745522;81;21130;-37
2020/12/06 07:12:57;;;;;;;8.60;4.40;;;;;;;-2.15;58.32;102393.28;1751860;81;21158;-37
2020/12/06 07:15:27;;;;;;;8.13;4.10;;;;;;;-2.14;58.25;102393.73;1749137;81;21142;-40
2020/12/06 07:17:56;;;;;;;7.67;4.30;;;;;;;-2.13;58.13;102399.01;1750350;81;21165;-38
2020/12/06 07:20:24;;;;;;;9.07;5.47;;;;;;;-2.13;58.06;102390.29;1750372;81;21134;-38
2020/12/06 07:22:52;;;;;;;6.23;4.13;;;;;;;-2.14;57.83;102399.87;1745615;81;21142;-39
2020/12/06 07:25:20;;;;;;;7.43;4.20;;;;;;;-2.10;58.37;102403.00;1690464;82;21186;-39
2020/12/06 07:27:48;;;;;;;6.80;3.50;;;;;;;-2.09;58.29;102396.94;1750377;81;21139;-38
2020/12/06 07:30:18;;;;;;;9.37;4.53;;;;;;;-2.05;57.93;102402.69;1746713;81;21146;-42
2020/12/06 07:32:46;;;;;;;7.37;3.90;;;;;;;-2.02;57.92;102402.75;1749406;81;21589;-42
2020/12/06 07:35:15;;;;;;;6.37;4.27;;;;;;;-1.97;57.94;102398.94;1747694;81;22011;-40
2020/12/06 07:37:45;;;;;;;7.40;4.50;;;;;;;-1.92;57.87;102410.82;1744672;81;21154;-43
2020/12/06 07:40:12;;;;;;;6.57;4.03;;;;;;;-1.90;57.52;102410.02;1749371;81;21146;-40
2020/12/06 07:42:40;;;;;;;8.13;4.60;;;;;;;-1.88;57.43;102416.59;1746626;81;21150;-42
2020/12/06 07:45:07;;;;;;;8.07;3.60;;;;;;;-1.84;57.64;102411.88;1746471;81;21210;-40
2020/12/06 07:47:35;;;;;;;6.33;3.67;;;;;;;-1.78;57.53;102418.58;1750230;81;21173;-43
2020/12/06 07:50:05;;;;;;;5.80;3.53;;;;;;;-1.77;57.35;102415.97;1748640;81;21126;-43
2020/12/06 07:52:36;;;;;;;6.77;4.67;;;;;;;-1.72;57.28;102417.39;1746215;80;21323;-38
2020/12/06 07:55:05;;;;;;;;;;;;;;;-1.68;57.13;102420.98;1759806;80;21154;-42
2020/12/06 07:57:43;;;;;;;5.37;3.83;;;;;;;-1.63;56.95;102419.35;1760698;80;20158;-42
2020/12/06 08:00:20;;;;;;;6.57;4.07;;;;;;;-1.61;56.81;102418.53;1751342;80;21138;-39
2020/12/06 08:02:59;;;;;;;6.03;3.60;;;;;;;-1.55;56.82;102416.47;1750818;80;21464;-42
2020/12/06 08:05:29;;;;;;;6.47;4.40;;;;;;;-1.55;56.69;102421.27;1750632;80;21145;-45
2020/12/06 08:08:19;;;;;;;5.47;3.90;;;;;;;-1.50;56.70;102415.27;1756246;80;21170;-42
2020/12/06 08:10:51;;;;;;;6.45;4.25;;;;;;;-1.45;56.58;102417.13;1752263;80;21145;-43
2020/12/06 08:13:19;;;;;;;7.23;3.80;;;;;;;-1.41;56.48;102420.68;1696016;82;21152;-42
2020/12/06 08:15:47;;;;;;;8.73;4.40;;;;;;;-1.38;56.47;102410.30;1753736;80;21138;-39
2020/12/06 08:18:15;;;;;;;6.47;4.13;;;;;;;-1.34;56.51;102414.73;1753035;80;21276;-40
2020/12/06 08:20:55;;;;;;;7.23;4.40;;;;;;;-1.31;56.37;102412.20;1753176;80;21165;-37
2020/12/06 08:26:11;;;;;;;7.03;4.27;;;;;;;-1.19;56.21;102413.73;1801169;78;23572;-38
2020/12/06 08:28:39;;;;;;;10.23;4.00;;;;;;;-1.20;56.12;102411.98;1708019;81;21177;-36
2020/12/06 08:31:24;;;;;;;6.30;3.80;;;;;;;-1.18;56.06;102411.59;1740020;81;21134;-40
2020/12/06 08:33:51;;;;;;;7.43;3.80;;;;;;;-1.11;56.19;102409.96;1719157;83;21591;-35
2020/12/06 08:36:25;;;;;;;6.47;3.43;;;;;;;-1.02;56.13;102406.66;1724929;81;21165;-39
2020/12/06 08:38:53;;;;;;;6.10;4.07;;;;;;;-0.94;55.96;102415.11;1715334;82;21153;-37
2020/12/06 08:41:24;;;;;;;6.30;4.00;;;;;;;-0.88;55.39;102417.88;1723822;81;21161;-41
2020/12/06 08:44:02;;;;;;;6.93;4.07;;;;;;;-0.82;55.37;102423.64;1730470;82;21205;-38
2020/12/06 08:46:31;;;;;;;13.50;4.37;;;;;;;-0.78;55.19;102414.09;1688501;82;21168;-38
2020/12/06 08:49:00;;;;;;;6.90;4.27;;;;;;;-0.74;55.03;102408.94;1702594;82;21184;-42
2020/12/06 08:54:35;;;;;;;9.33;4.13;;;;;;;-0.58;54.53;102398.73;1797470;78;22829;-35
2020/12/06 08:57:09;;;;;;;8.70;4.87;;;;;;;-0.56;54.59;102400.97;1779873;80;21126;-39
2020/12/06 08:59:38;;;;;;;8.00;4.93;;;;;;;-0.53;54.58;102390.53;1768072;79;21157;-40
2020/12/06 09:02:06;;;;;;;6.57;4.03;;;;;;;-0.50;54.33;102395.41;1769491;79;21160;-36
2020/12/06 09:04:34;;;;;;;8.17;5.27;;;;;;;-0.44;54.73;102392.00;1730353;81;21316;-41
2020/12/06 09:07:04;;;;;;;8.77;5.03;;;;;;;-0.37;54.17;102398.25;1708082;82;21165;-40
2020/12/06 09:09:32;;;;;;;7.37;4.87;;;;;;;-0.32;54.21;102396.59;1725069;81;21121;-38
2020/12/06 09:12:02;;;;;;;7.28;4.60;;;;;;;-0.27;54.06;102389.67;1707867;81;21177;-35
2020/12/06 09:14:30;;;;;;;8.17;4.47;;;;;;;-0.22;53.79;102398.50;1704155;82;21198;-39
2020/12/06 09:16:57;;;;;;;10.10;6.17;;;;;;;-0.17;53.62;102394.64;1703637;81;21197;-39
2020/12/06 09:19:25;;;;;;;7.70;4.43;;;;;;;-0.13;53.67;102392.50;1711267;82;21173;-38
2020/12/06 09:21:53;;;;;;;10.80;5.43;;;;;;;-0.08;53.50;102394.34;1703900;82;21156;-35
2020/12/06 09:24:20;;;;;;;7.97;4.57;;;;;;;-0.07;53.49;102388.25;1728261;80;21151;-37
2020/12/06 09:26:48;;;;;;;8.13;3.87;;;;;;;-0.02;53.79;102394.88;1743165;81;21629;-35
2020/12/06 09:29:15;;;;;;;6.03;4.12;;;;;;;0.04;53.59;102391.47;1718257;81;21943;-39
2020/12/06 09:31:43;;;;;;;9.58;5.37;;;;;;;0.10;53.64;102386.30;1743401;81;22327;-39
2020/12/06 09:34:10;;;;;;;8.90;5.00;;;;;;;0.16;53.40;102389.91;1712358;81;21189;-38
2020/12/06 09:36:42;;;;;;;8.95;5.53;;;;;;;0.20;53.20;102390.81;1723413;81;21188;-36
2020/12/06 09:39:11;;;;;;;11.27;5.20;;;;;;;0.26;52.82;102388.30;1707541;82;21181;-38
2020/12/06 09:41:44;;;;;;;7.05;4.92;;;;;;;0.31;52.51;102385.30;1711624;83;21158;-38
2020/12/06 09:44:12;;;;;;;6.33;4.57;;;;;;;0.36;52.42;102382.75;1731924;81;21192;-37
2020/12/06 09:46:40;;;;;;;9.10;5.10;;;;;;;0.39;52.43;102387.59;1697262;83;21205;-36
2020/12/06 09:49:07;;;;;;;6.40;4.53;;;;;;;0.45;52.56;102381.98;1697722;83;21460;-36
2020/12/06 09:51:35;;;;;;;11.47;4.43;;;;;;;0.50;52.65;102381.17;1710263;81;21180;-38
2020/12/06 09:54:02;;;;;;;10.00;5.43;;;;;;;0.57;52.51;102380.83;1689097;83;21199;-35
2020/12/06 09:56:31;;;;;;;10.30;5.83;;;;;;;0.61;52.31;102374.77;1697377;83;21133;-35
2020/12/06 09:58:58;;;;;;;11.13;5.60;;;;;;;0.64;51.95;102370.42;1722731;82;21153;-38
2020/12/06 10:01:26;;;;;;;10.10;4.77;;;;;;;0.69;52.08;102372.23;1718858;81;21739;-38
2020/12/06 10:03:54;;;;;;;9.55;5.90;;;;;;;0.71;52.07;102366.14;1711470;82;21429;-36
2020/12/06 10:06:25;;;;;;;8.50;5.75;;;;;;;0.73;52.19;102355.22;1711636;81;21201;-37
2020/12/06 10:08:53;;;;;;;7.78;4.78;;;;;;;0.79;51.83;102357.03;1709174;81;21180;-33
2020/12/06 10:11:22;;;;;;;8.55;4.75;;;;;;;0.81;51.69;102358.81;1685038;83;21750;-39
2020/12/06 10:13:50;;;;;;;6.67;4.47;;;;;;;0.85;51.78;102354.02;1688566;83;21169;-39
2020/12/06 10:16:18;;;;;;;7.65;5.03;;;;;;;0.88;51.86;102353.61;1712296;82;21166;-35
2020/12/06 10:18:45;;;;;;;7.12;4.30;;;;;;;0.91;51.55;102350.61;1710760;82;21153;-36
2020/12/06 10:21:13;;;;;;;7.85;5.25;;;;;;;0.95;51.58;102355.45;1725792;82;22571;-37
2020/12/06 10:23:41;;;;;;;8.53;4.95;;;;;;;0.95;51.63;102353.70;1683333;84;21212;-36
2020/12/06 10:26:09;;;;;;;8.03;5.10;;;;;;;1.00;51.65;102360.32;1677520;83;21173;-36
2020/12/06 10:28:36;;;;;;;9.65;5.33;;;;;;;1.03;51.64;102357.31;1683768;83;21157;-40
2020/12/06 10:31:04;;;;;;;8.70;5.40;;;;;;;1.04;51.42;102352.94;1683795;83;21166;-38
2020/12/06 10:33:31;;;;;;;10.58;5.17;;;;;;;1.04;51.12;102348.98;1692667;83;21183;-38
2020/12/06 10:35:59;;;;;;;11.05;5.40;;;;;;;1.03;50.89;102340.23;1695347;83;21167;-37
2020/12/06 10:38:27;;;;;;;9.65;5.60;;;;;;;1.01;50.72;102331.88;1724421;81;21161;-37
2020/12/06 10:40:55;;;;;;;8.03;5.15;;;;;;;1.01;51.83;102330.57;1715458;82;21165;-37
2020/12/06 10:43:22;;;;;;;9.05;5.30;;;;;;;1.02;51.37;102333.63;1677946;83;21241;-39
2020/12/06 10:45:51;;;;;;;9.15;5.55;;;;;;;1.04;51.09;102338.48;1696963;82;21173;-40
2020/12/06 10:48:18;;;;;;;9.05;5.47;;;;;;;1.03;50.67;102339.33;1710147;82;21655;-38
2020/12/06 10:50:54;;;;;;;6.97;5.10;;;;;;;1.02;50.76;102338.89;1685775;83;21505;-40
2020/12/06 10:53:22;;;;;;;8.58;5.35;;;;;;;0.99;50.81;102337.11;1705438;82;21158;-40
2020/12/06 10:55:49;;;;;;;8.70;5.33;;;;;;;0.95;50.68;102339.69;1685000;83;21302;-39
2020/12/06 10:58:17;;;;;;;6.20;4.12;;;;;;;0.92;50.83;102335.72;1709560;81;21200;-38
2020/12/06 11:00:46;;;;;;;11.65;5.85;;;;;;;0.90;50.86;102333.50;1709977;83;21724;-39
2020/12/06 11:03:13;;;;;;;9.25;4.97;;;;;;;0.87;50.74;102327.78;1709332;81;21172;-40
2020/12/06 11:05:41;;;;;;;10.72;5.80;;;;;;;0.88;50.94;102324.72;1708067;81;21606;-40
2020/12/06 11:08:08;;;;;;;9.20;5.30;;;;;;;0.89;51.19;102326.06;1722062;82;21164;-41
2020/12/06 11:10:36;;;;;;;8.83;5.12;;;;;;;0.88;50.93;102322.96;1690088;83;21174;-39
2020/12/06 11:13:03;;;;;;;8.53;4.67;;;;;;;0.88;50.83;102327.34;1687576;83;21864;-39
2020/12/06 11:15:31;;;;;;;9.45;5.37;;;;;;;0.85;50.77;102322.94;1674222;83;22131;-39
2020/12/06 11:18:00;;;;;;;7.60;5.30;;;;;;;0.85;51.16;102322.94;1683833;83;21257;-40
2020/12/06 11:20:28;;;;;;;7.95;5.37;;;;;;;0.84;51.38;102325.13;1688018;83;21660;-37
2020/12/06 11:22:57;;;;;;;7.28;4.87;;;;;;;0.84;50.94;102322.50;1686453;83;21192;-39
2020/12/06 11:25:25;;;;;;;10.82;5.60;;;;;;;0.83;50.83;102321.63;1684594;83;21180;-37
2020/12/06 11:27:52;;;;;;;8.40;4.60;;;;;;;0.81;50.24;102316.78;1710078;81;21149;-39
2020/12/06 11:30:20;;;;;;;11.73;5.75;;;;;;;0.80;50.36;102322.88;1676245;83;21642;-39
2020/12/06 11:32:48;;;;;;;8.60;5.70;;;;;;;0.80;50.27;102314.13;1694971;83;21186;-39
2020/12/06 11:35:16;;;;;;;8.90;4.70;;;;;;;0.77;50.49;102310.16;1679591;83;21180;-40
2020/12/06 11:37:43;;;;;;;10.65;4.83;;;;;;;0.76;50.68;102311.04;1685421;83;21171;-38
2020/12/06 11:40:11;;;;;;;14.95;6.72;;;;;;;0.75;50.66;102314.07;1719795;82;21192;-39
2020/12/06 11:42:38;;;;;;;9.10;5.40;;;;;;;0.74;50.91;102316.70;1710057;81;21181;-38